Time;durP1;ratioP1;P1;durP2;ratioP2;P2;SDS_P1;SDS_P2;PMS_P1;PMS_P2;Temp;Humidity;BMP_temperature;BMP_pressure;BME280_temperature;BME280_humidity;BME280_pressure;Samples;Min_cycle;Max_cycle;Signal;HPM_P1;HPM_P2
2022/09/18 00:00:37;;;;;;;;;;;;;;;13.77;48.81;99008.13;5057539;28;19916;-51
2022/09/18 00:03:04;;;;;;;;;;;;;;;13.73;50.05;99004.31;5075501;28;19928;-50
2022/09/18 00:05:29;;;;;;;;;;;;;;;13.83;50.42;98995.94;5057409;28;19917;-49
2022/09/18 00:07:55;;;;;;;;;;;;;;;13.99;50.79;98998.84;5075370;28;20350;-50
2022/09/18 00:10:21;;;;;;;;;;;;;;;14.04;50.61;98995.56;5075327;28;19927;-50
2022/09/18 00:12:46;;;;;;;;;;;;;;;13.93;50.82;98988.34;5075307;28;19923;-48
2022/09/18 00:15:11;;;;;;;;;;;;;;;13.75;51.18;98991.72;5075259;28;19944;-49
2022/09/18 00:17:37;;;;;;;;;;;;;;;13.65;51.39;98996.66;5075233;28;19923;-50
2022/09/18 00:20:03;;;;;;;;;;;;;;;13.46;51.85;98998.38;5075148;28;20283;-49
2022/09/18 00:22:28;;;;;;;;;;;;;;;13.45;53.96;99002.03;5075059;28;19962;-49
2022/09/18 00:24:54;;;;;;;;;;;;;;;13.39;54.25;98999.22;5075010;28;19917;-51
2022/09/18 00:27:20;;;;;;;;;;;;;;;13.15;54.13;98995.44;5075014;28;19920;-51
2022/09/18 00:29:48;;;;;;;;;;;;;;;13.19;54.24;98994.00;5074792;28;19928;-51
2022/09/18 00:32:13;;;;;;;;;;;;;;;13.15;53.91;98997.28;5056978;28;20306;-51
2022/09/18 00:34:40;;;;;;;;;;;;;;;13.09;53.58;98998.91;5056912;28;19927;-51
2022/09/18 00:37:06;;;;;;;;;;;;;;;12.98;53.44;98992.47;5074793;28;19928;-51
2022/09/18 00:39:31;;;;;;;;;;;;;;;12.88;53.71;98989.47;5056864;28;19916;-51
2022/09/18 00:41:56;;;;;;;;;;;;;;;12.90;53.37;98986.63;5074761;28;19928;-50
2022/09/18 00:44:36;;;;;;;;;;;;;;;12.89;53.07;98985.00;5074284;28;19917;-51
2022/09/18 00:47:10;;;;;;;;;;;;;;;12.93;53.46;98984.38;5056693;28;20405;-51
2022/09/18 00:49:56;;;;;;;;;;;;;;;12.94;53.49;98979.94;5074652;28;19916;-51
2022/09/18 00:52:25;;;;;;;;;;;;;;;12.92;53.63;98982.78;5055489;28;19920;-51
2022/09/18 00:55:03;;;;;;;;;;;;;;;12.84;53.85;98988.28;5074577;28;19921;-52
2022/09/18 00:57:32;;;;;;;;;;;;;;;12.82;53.83;98981.56;5074551;28;19916;-51
2022/09/18 00:59:59;;;;;;;;;;;;;;;12.80;54.04;98981.81;5056537;28;19921;-52
2022/09/18 01:02:24;;;;;;;;;;;;;;;12.77;54.68;98975.09;5074447;28;20336;-52
2022/09/18 01:04:50;;;;;;;;;;;;;;;12.78;55.41;98976.72;5074281;28;19916;-52
2022/09/18 01:07:27;;;;;;;;;;;;;;;12.84;55.59;98975.09;5074313;28;19928;-51
2022/09/18 01:09:56;;;;;;;;;;;;;;;12.91;55.74;98967.16;5074346;28;19940;-52
2022/09/18 01:12:27;;;;;;;;;;;;;;;12.89;55.80;98977.09;5056262;28;19924;-50
2022/09/18 01:15:01;;;;;;;;;;;;;;;12.86;55.93;98986.25;5056242;28;19920;-51
2022/09/18 01:17:36;;;;;;;;;;;;;;;12.87;56.33;98985.22;5074196;28;19924;-51
2022/09/18 01:20:04;;;;;;;;;;;;;;;12.83;56.36;98984.00;5074106;28;19917;-51
2022/09/18 01:22:48;;;;;;;;;;;;;;;12.80;56.65;98987.06;5074081;28;19959;-51
2022/09/18 01:25:13;;;;;;;;;;;;;;;12.75;56.63;98987.66;5073907;28;19916;-51
2022/09/18 01:27:59;;;;;;;;;;;;;;;12.68;56.69;98989.53;5055971;28;19920;-51
2022/09/18 01:30:24;;;;;;;;;;;;;;;12.55;56.55;98990.34;5055947;28;19929;-51
2022/09/18 01:32:54;;;;;;;;;;;;;;;12.54;57.19;98990.56;5055882;28;20440;-51
2022/09/18 01:35:38;;;;;;;;;;;;;;;12.61;57.36;98990.56;5073763;28;19920;-51
2022/09/18 01:38:09;;;;;;;;;;;;;;;12.56;57.11;98994.59;5073749;28;20011;-51
2022/09/18 01:40:45;;;;;;;;;;;;;;;12.51;57.56;98994.41;5073659;28;19922;-52
2022/09/18 01:43:13;;;;;;;;;;;;;;;12.51;57.22;98989.13;5073625;28;20373;-51
2022/09/18 01:45:49;;;;;;;;;;;;;;;12.48;57.37;98994.03;5055467;28;19924;-51
2022/09/18 01:48:25;;;;;;;;;;;;;;;12.52;57.49;98989.97;5073604;28;19924;-51
2022/09/18 01:50:56;;;;;;;;;;;;;;;12.49;57.10;99000.91;5073514;28;20378;-50
2022/09/18 01:53:31;;;;;;;;;;;;;;;12.40;57.55;98997.69;5055551;28;19916;-51
2022/09/18 01:56:00;;;;;;;;;;;;;;;12.31;57.35;98999.69;5054611;28;19920;-51
2022/09/18 01:58:27;;;;;;;;;;;;;;;12.31;56.98;98996.25;5055339;28;19921;-51
2022/09/18 02:00:55;;;;;;;;;;;;;;;12.23;56.88;99004.34;5055327;28;19920;-51
2022/09/18 02:03:24;;;;;;;;;;;;;;;12.04;56.91;98996.25;5073243;28;19917;-51
2022/09/18 02:06:09;;;;;;;;;;;;;;;11.90;57.08;99000.69;5073029;28;19927;-51
2022/09/18 02:08:47;;;;;;;;;;;;;;;11.82;57.69;98992.19;5073191;28;19920;-51
2022/09/18 02:11:14;;;;;;;;;;;;;;;11.80;58.17;98989.75;5073029;28;19916;-51
2022/09/18 02:13:39;;;;;;;;;;;;;;;11.86;58.03;98993.41;5073056;28;20015;-51
2022/09/18 02:16:11;;;;;;;;;;;;;;;11.93;57.87;98988.97;5073053;28;19959;-51
2022/09/18 02:18:39;;;;;;;;;;;;;;;12.27;58.28;98987.94;5072961;28;19920;-51
2022/09/18 02:21:10;;;;;;;;;;;;;;;12.48;57.74;98981.66;5072910;28;19921;-51
2022/09/18 02:23:37;;;;;;;;;;;;;;;12.57;57.36;98984.88;5072852;28;19920;-51
2022/09/18 02:26:05;;;;;;;;;;;;;;;12.77;57.32;98984.84;5054754;28;19938;-51
2022/09/18 02:28:32;;;;;;;;;;;;;;;12.89;56.57;98985.00;5072464;28;19920;-51
2022/09/18 02:30:58;;;;;;;;;;;;;;;13.01;56.63;98993.06;5072681;28;19920;-51
2022/09/18 02:33:31;;;;;;;;;;;;;;;13.07;56.36;98979.06;5072642;28;19923;-51
2022/09/18 02:35:56;;;;;;;;;;;;;;;13.09;56.08;98983.09;5072564;28;19927;-51
2022/09/18 02:38:29;;;;;;;;;;;;;;;13.17;56.21;98974.94;5054576;28;19916;-51
2022/09/18 02:41:01;;;;;;;;;;;;;;;13.16;55.55;98978.63;5054627;28;19934;-51
2022/09/18 02:43:30;;;;;;;;;;;;;;;13.14;55.33;98985.13;5072537;28;20365;-51
2022/09/18 02:46:18;;;;;;;;;;;;;;;13.05;54.72;98981.91;5072403;28;19928;-51
2022/09/18 02:48:55;;;;;;;;;;;;;;;12.76;54.71;98981.41;5071916;28;20020;-50
2022/09/18 02:51:34;;;;;;;;;;;;;;;12.36;55.45;98980.66;5054482;28;20405;-50
2022/09/18 02:54:17;;;;;;;;;;;;;;;12.02;55.90;98979.06;5072481;28;19920;-51
2022/09/18 02:56:49;;;;;;;;;;;;;;;11.84;56.53;98969.13;5072399;28;19962;-51
2022/09/18 02:59:20;;;;;;;;;;;;;;;11.69;57.12;98974.53;5072282;28;20369;-51
2022/09/18 03:01:46;;;;;;;;;;;;;;;11.61;57.56;98980.81;5072299;28;20444;-51
2022/09/18 03:04:13;;;;;;;;;;;;;;;11.54;56.96;98977.38;5054245;28;19955;-51
2022/09/18 03:06:38;;;;;;;;;;;;;;;11.49;57.58;98979.75;5072114;28;20447;-51
2022/09/18 03:09:04;;;;;;;;;;;;;;;11.36;57.84;98978.72;5072207;28;19947;-51
2022/09/18 03:11:29;;;;;;;;;;;;;;;11.25;58.05;98987.19;5054170;28;20011;-51
2022/09/18 03:13:55;;;;;;;;;;;;;;;11.24;58.46;98982.94;5072217;28;20014;-51
2022/09/18 03:16:20;;;;;;;;;;;;;;;11.25;58.58;98986.38;5037501;28;20015;-51
2022/09/18 03:18:46;;;;;;;;;;;;;;;11.30;58.67;98981.34;5054194;28;19916;-50
2022/09/18 03:21:11;;;;;;;;;;;;;;;11.36;58.29;98976.09;5072047;28;20375;-51
2022/09/18 03:23:36;;;;;;;;;;;;;;;11.38;58.50;98975.91;5054030;28;20034;-51
2022/09/18 03:26:02;;;;;;;;;;;;;;;11.40;58.12;98973.88;5071917;28;19962;-51
2022/09/18 03:28:30;;;;;;;;;;;;;;;11.38;58.25;98973.28;5071760;28;19920;-50
2022/09/18 03:30:55;;;;;;;;;;;;;;;11.38;57.89;98981.16;5072007;28;19920;-51
2022/09/18 03:33:21;;;;;;;;;;;;;;;11.42;58.35;98982.38;5071999;28;20424;-51
2022/09/18 03:35:46;;;;;;;;;;;;;;;11.49;58.26;98982.38;5071950;28;19951;-51
2022/09/18 03:38:11;;;;;;;;;;;;;;;11.50;57.95;98986.66;5071908;28;19917;-51
2022/09/18 03:40:37;;;;;;;;;;;;;;;11.56;58.10;98988.50;5071876;28;19923;-51
2022/09/18 03:43:02;;;;;;;;;;;;;;;11.61;58.01;98978.19;5071891;28;19966;-51
2022/09/18 03:45:28;;;;;;;;;;;;;;;11.66;57.77;98983.66;5071730;28;19920;-51
2022/09/18 03:47:53;;;;;;;;;;;;;;;11.70;57.68;98982.25;5053806;28;20391;-51
2022/09/18 03:50:19;;;;;;;;;;;;;;;11.67;57.48;98982.66;5071803;28;20014;-51
2022/09/18 03:52:44;;;;;;;;;;;;;;;11.62;57.72;98982.44;5053834;28;19917;-51
2022/09/18 03:55:10;;;;;;;;;;;;;;;11.62;57.50;98981.63;5071718;28;20007;-51
2022/09/18 03:57:35;;;;;;;;;;;;;;;11.69;58.25;98985.91;5071788;28;19920;-51
2022/09/18 04:00:01;;;;;;;;;;;;;;;11.86;57.37;98988.13;5071679;28;19917;-51
2022/09/18 04:02:26;;;;;;;;;;;;;;;11.87;57.57;98985.31;5053628;28;19962;-51
2022/09/18 04:04:52;;;;;;;;;;;;;;;12.07;57.69;98993.22;5071617;28;19986;-50
2022/09/18 04:07:19;;;;;;;;;;;;;;;12.33;57.29;98988.97;5071669;28;19917;-51
2022/09/18 04:09:44;;;;;;;;;;;;;;;12.31;56.70;98996.25;5071621;28;19931;-51
2022/09/18 04:12:10;;;;;;;;;;;;;;;12.25;56.71;98995.25;5071573;28;20404;-51
2022/09/18 04:14:35;;;;;;;;;;;;;;;12.27;56.67;98995.03;5071575;28;19924;-51
2022/09/18 04:17:02;;;;;;;;;;;;;;;12.37;56.45;98996.28;5071789;28;19923;-49
2022/09/18 04:19:27;;;;;;;;;;;;;;;12.30;56.40;98997.28;5074042;28;20011;-49
2022/09/18 04:21:53;;;;;;;;;;;;;;;12.24;56.13;99006.00;5057256;28;20520;-50
2022/09/18 04:24:18;;;;;;;;;;;;;;;12.20;56.24;98997.69;5075082;28;20397;-49
2022/09/18 04:26:43;;;;;;;;;;;;;;;12.05;55.93;99003.13;5075058;28;19920;-49
2022/09/18 04:29:09;;;;;;;;;;;;;;;11.70;56.02;98999.84;5074755;28;19943;-49
2022/09/18 04:31:34;;;;;;;;;;;;;;;11.22;56.56;99003.34;5057013;28;19916;-48
2022/09/18 04:33:59;;;;;;;;;;;;;;;11.09;57.55;99008.56;5056988;28;20318;-48
2022/09/18 04:36:26;;;;;;;;;;;;;;;11.24;57.76;99000.53;5074968;28;19927;-49
2022/09/18 04:38:51;;;;;;;;;;;;;;;11.37;57.50;98998.75;5075155;28;19916;-49
2022/09/18 04:41:17;;;;;;;;;;;;;;;11.50;57.77;99003.22;5074847;28;19916;-50
2022/09/18 04:43:42;;;;;;;;;;;;;;;11.59;57.73;98993.34;5074814;28;19950;-48
2022/09/18 04:46:08;;;;;;;;;;;;;;;11.69;57.93;99006.94;5056630;28;19920;-50
2022/09/18 04:48:33;;;;;;;;;;;;;;;11.75;57.40;99005.28;5056723;28;19916;-49
2022/09/18 04:50:59;;;;;;;;;;;;;;;11.71;57.04;99002.28;5074686;28;19916;-49
2022/09/18 04:53:24;;;;;;;;;;;;;;;11.76;57.39;99012.19;5074569;28;20019;-49
2022/09/18 04:55:50;;;;;;;;;;;;;;;11.84;57.38;99005.94;5074497;28;19970;-49
2022/09/18 04:58:17;;;;;;;;;;;;;;;11.74;56.94;99004.50;5056515;28;19956;-49
2022/09/18 05:00:43;;;;;;;;;;;;;;;11.58;56.87;99013.56;5074448;28;19994;-49
2022/09/18 05:03:09;;;;;;;;;;;;;;;11.46;57.38;99019.59;5056395;28;20412;-51
2022/09/18 05:05:34;;;;;;;;;;;;;;;11.32;57.36;99011.66;5074354;28;20302;-51
2022/09/18 05:08:01;;;;;;;;;;;;;;;11.29;57.19;99014.69;5074342;28;19943;-51
2022/09/18 05:10:27;;;;;;;;;;;;;;;11.31;57.82;99017.94;5074287;28;19964;-51
2022/09/18 05:12:53;;;;;;;;;;;;;;;11.35;57.71;99016.53;5074310;28;20370;-52
2022/09/18 05:15:19;;;;;;;;;;;;;;;11.33;57.36;99017.75;5074173;28;19924;-49
2022/09/18 05:17:45;;;;;;;;;;;;;;;11.28;57.50;99025.41;5074243;28;20378;-48
2022/09/18 05:20:10;;;;;;;;;;;;;;;11.27;57.49;99027.22;5056127;28;19923;-49
2022/09/18 05:22:36;;;;;;;;;;;;;;;11.31;57.34;99014.50;5056117;28;19916;-49
2022/09/18 05:25:02;;;;;;;;;;;;;;;11.29;57.40;99024.38;5073955;28;20405;-49
2022/09/18 05:27:27;;;;;;;;;;;;;;;11.27;57.53;99027.22;5073944;28;19942;-49
2022/09/18 05:29:52;;;;;;;;;;;;;;;11.28;57.42;99034.06;5072541;28;19920;-49
2022/09/18 05:32:19;;;;;;;;;;;;;;;11.35;57.43;99034.13;5073860;28;20374;-50
2022/09/18 05:34:45;;;;;;;;;;;;;;;11.51;57.64;99039.03;5074032;28;19927;-49
2022/09/18 05:37:12;;;;;;;;;;;;;;;11.98;57.20;99039.97;5073749;28;19916;-50
2022/09/18 05:39:37;;;;;;;;;;;;;;;12.46;56.31;99040.81;5073661;28;19920;-51
2022/09/18 05:42:03;;;;;;;;;;;;;;;13.05;55.71;99045.13;5055582;28;19966;-51
2022/09/18 05:44:29;;;;;;;;;;;;;;;13.60;53.99;99044.72;5055645;28;19981;-51
2022/09/18 05:46:54;;;;;;;;;;;;;;;13.95;52.63;99044.34;5073577;28;20356;-51
2022/09/18 05:49:20;;;;;;;;;;;;;;;14.19;51.64;99048.84;5055612;28;19921;-51
2022/09/18 05:51:45;;;;;;;;;;;;;;;14.45;50.96;99044.38;5073497;28;19920;-51
2022/09/18 05:54:11;;;;;;;;;;;;;;;14.58;50.14;99046.91;5073456;28;19916;-50
2022/09/18 05:56:36;;;;;;;;;;;;;;;14.22;50.25;99050.22;5073397;28;19948;-50
2022/09/18 05:59:02;;;;;;;;;;;;;;;13.85;51.34;99049.28;5073314;28;19945;-50
2022/09/18 06:01:28;;;;;;;;;;;;;;;13.74;51.66;99050.75;5055316;28;19917;-50
2022/09/18 06:03:54;;;;;;;;;;;;;;;14.00;51.65;99057.69;5073219;28;20405;-51
2022/09/18 06:06:22;;;;;;;;;;;;;;;14.42;50.80;99044.00;5073109;28;20015;-51
2022/09/18 06:08:48;;;;;;;;;;;;;;;14.97;50.08;99031.72;5055174;28;19916;-51
2022/09/18 06:11:13;;;;;;;;;;;;;;;15.52;49.08;99040.63;5073052;28;20333;-50
2022/09/18 06:13:39;;;;;;;;;;;;;;;15.87;48.62;99039.94;5073066;28;20394;-51
2022/09/18 06:16:04;;;;;;;;;;;;;;;16.14;48.18;99035.88;5055188;28;19917;-50
2022/09/18 06:18:30;;;;;;;;;;;;;;;16.42;47.36;99046.84;5072971;28;19995;-51
2022/09/18 06:20:56;;;;;;;;;;;;;;;16.55;47.02;99042.13;5055010;28;20327;-49
2022/09/18 06:23:23;;;;;;;;;;;;;;;16.84;46.70;99044.94;5072908;28;19969;-48
2022/09/18 06:25:55;;;;;;;;;;;;;;;17.29;45.97;99043.47;5072746;28;20283;-51
2022/09/18 06:28:20;;;;;;;;;;;;;;;17.84;45.06;99058.03;5072755;28;19974;-51
2022/09/18 06:30:46;;;;;;;;;;;;;;;18.22;44.42;99053.91;5072754;28;19916;-51
2022/09/18 06:33:11;;;;;;;;;;;;;;;18.56;43.79;99054.69;5072696;28;19916;-50
2022/09/18 06:35:41;;;;;;;;;;;;;;;19.06;43.02;99053.03;5072639;28;20335;-49
2022/09/18 06:38:06;;;;;;;;;;;;;;;19.50;42.16;99048.50;5072506;28;19928;-48
2022/09/18 06:40:32;;;;;;;;;;;;;;;20.00;41.21;99051.13;5072399;28;19916;-49
2022/09/18 06:43:00;;;;;;;;;;;;;;;20.41;40.17;99044.25;5054346;28;19923;-49
2022/09/18 06:45:26;;;;;;;;;;;;;;;21.02;39.33;99051.84;5072486;28;19920;-49
2022/09/18 06:47:54;;;;;;;;;;;;;;;21.52;38.82;99052.34;5072482;28;19924;-49
2022/09/18 06:50:21;;;;;;;;;;;;;;;22.01;37.50;99051.88;5072679;28;19920;-49
2022/09/18 06:52:47;;;;;;;;;;;;;;;22.17;37.36;99057.22;5072707;28;19926;-50
2022/09/18 06:55:12;;;;;;;;;;;;;;;22.30;35.03;99046.03;5054326;28;20018;-48
2022/09/18 06:57:38;;;;;;;;;;;;;;;22.09;35.68;99050.53;5054459;28;20003;-50
2022/09/18 07:00:03;;;;;;;;;;;;;;;22.14;35.00;99038.00;5054291;28;20311;-48
2022/09/18 07:02:28;;;;;;;;;;;;;;;22.22;35.69;99038.53;5054260;28;19952;-50
2022/09/18 07:04:54;;;;;;;;;;;;;;;22.66;34.94;99046.00;5072252;28;20011;-49
2022/09/18 07:07:19;;;;;;;;;;;;;;;22.68;34.49;99036.63;5072285;28;20436;-49
2022/09/18 07:09:45;;;;;;;;;;;;;;;22.50;34.02;99035.31;5054392;28;19926;-48
2022/09/18 07:12:10;;;;;;;;;;;;;;;22.24;33.43;99036.41;5054250;28;20406;-50
2022/09/18 07:14:36;;;;;;;;;;;;;;;22.27;34.65;99038.53;5072157;28;19921;-48
2022/09/18 07:17:02;;;;;;;;;;;;;;;23.12;33.37;99037.88;5054173;28;19959;-47
2022/09/18 07:19:27;;;;;;;;;;;;;;;23.69;32.76;99039.16;5072112;28;19963;-47
2022/09/18 07:21:52;;;;;;;;;;;;;;;23.77;32.60;99032.44;5054143;28;20071;-48
2022/09/18 07:24:18;;;;;;;;;;;;;;;24.08;32.26;99032.19;5054049;28;19978;-47
2022/09/18 07:26:43;;;;;;;;;;;;;;;24.62;31.17;99038.44;5053998;28;19916;-49
2022/09/18 07:29:09;;;;;;;;;;;;;;;24.99;30.42;99036.97;5053800;28;19921;-48
2022/09/18 07:31:34;;;;;;;;;;;;;;;25.10;29.61;99036.56;5072040;28;19940;-49
2022/09/18 07:34:00;;;;;;;;;;;;;;;25.40;29.40;99036.50;5071945;28;19924;-48
2022/09/18 07:36:26;;;;;;;;;;;;;;;25.37;29.30;99045.13;5071992;28;19924;-48
2022/09/18 07:38:51;;;;;;;;;;;;;;;25.33;29.65;99044.88;5071863;28;19920;-48
2022/09/18 07:41:17;;;;;;;;;;;;;;;25.53;29.04;99043.81;5071896;28;19924;-48
2022/09/18 07:43:42;;;;;;;;;;;;;;;25.81;28.67;99041.28;5071898;28;19994;-47
2022/09/18 07:46:08;;;;;;;;;;;;;;;25.96;28.09;99046.47;5053807;28;19924;-47
2022/09/18 07:48:34;;;;;;;;;;;;;;;25.81;28.14;99041.28;5071832;28;20007;-46
2022/09/18 07:51:00;;;;;;;;;;;;;;;26.13;27.88;99045.91;5053829;28;19920;-48
2022/09/18 07:53:26;;;;;;;;;;;;;;;26.42;26.95;99048.38;5055104;28;19959;-47
2022/09/18 07:55:52;;;;;;;;;;;;;;;26.75;27.33;99048.34;5075586;28;19916;-47
2022/09/18 07:58:17;;;;;;;;;;;;;;;26.92;26.41;99049.66;5057722;28;19917;-47
2022/09/18 08:00:43;;;;;;;;;;;;;;;26.99;26.25;99056.22;5057592;28;19927;-47
2022/09/18 08:03:12;;;;;;;;;;;;;;;27.22;26.56;99056.31;5075477;28;19921;-48
2022/09/18 08:05:38;;;;;;;;;;;;;;;27.44;25.67;99055.59;5075438;28;19923;-48
2022/09/18 08:08:05;;;;;;;;;;;;;;;27.82;25.98;99061.47;5057548;28;19959;-47
2022/09/18 08:10:31;;;;;;;;;;;;;;;28.09;25.99;99055.22;5040873;28;20022;-48
2022/09/18 08:12:56;;;;;;;;;;;;;;;28.22;25.52;99060.84;5075340;28;20077;-47
2022/09/18 08:15:22;;;;;;;;;;;;;;;28.69;25.64;99055.88;5075347;28;19916;-48
2022/09/18 08:17:47;;;;;;;;;;;;;;;29.32;25.26;99062.00;5057628;28;19939;-50
2022/09/18 08:20:13;;;;;;;;;;;;;;;29.52;24.08;99059.78;5075128;28;20011;-48
2022/09/18 08:22:38;;;;;;;;;;;;;;;29.26;23.65;99058.63;5057600;28;20298;-47
2022/09/18 08:25:04;;;;;;;;;;;;;;;28.94;24.33;99057.09;5075051;28;19920;-49
2022/09/18 08:27:30;;;;;;;;;;;;;;;28.89;24.63;99059.91;5075116;28;20364;-48
2022/09/18 08:29:56;;;;;;;;;;;;;;;28.69;24.75;99061.28;5053652;28;20356;-48
2022/09/18 08:32:22;;;;;;;;;;;;;;;29.03;24.83;99062.50;5055289;28;20436;-48
2022/09/18 08:34:47;;;;;;;;;;;;;;;29.53;24.14;99067.56;5055000;28;19920;-48
2022/09/18 08:37:12;;;;;;;;;;;;;;;30.12;23.79;99044.66;5054920;28;20040;-49
2022/09/18 08:39:38;;;;;;;;;;;;;;;30.55;23.29;99054.63;5054911;28;19924;-49
2022/09/18 08:42:31;;;;;;;;;;;;;;;30.76;23.22;99057.41;5054839;28;19916;-49
2022/09/18 08:45:08;;;;;;;;;;;;;;;31.18;22.78;99066.44;5053834;28;19939;-49
2022/09/18 08:47:39;;;;;;;;;;;;;;;31.36;22.53;99059.00;5054848;28;20403;-47
2022/09/18 08:50:28;;;;;;;;;;;;;;;31.47;22.75;99059.41;5054721;28;19974;-48
2022/09/18 08:53:17;;;;;;;;;;;;;;;31.33;22.32;99065.09;5054136;28;19944;-49
2022/09/18 08:55:44;;;;;;;;;;;;;;;31.29;22.00;99060.63;5054652;28;20429;-48
2022/09/18 08:58:19;;;;;;;;;;;;;;;31.04;21.57;99071.31;5054565;28;19917;-49
2022/09/18 09:01:02;;;;;;;;;;;;;;;30.93;22.37;99070.09;5054500;28;20012;-49
2022/09/18 09:03:43;;;;;;;;;;;;;;;30.24;22.67;99066.44;5054521;28;19917;-50
2022/09/18 09:06:20;;;;;;;;;;;;;;;30.23;22.78;99078.41;5054257;28;19921;-48
2022/09/18 09:08:45;;;;;;;;;;;;;;;30.68;23.08;99072.56;5054478;28;19917;-48
2022/09/18 09:11:20;;;;;;;;;;;;;;;31.02;22.72;99073.56;5052997;28;20008;-49
2022/09/18 09:14:04;;;;;;;;;;;;;;;30.69;22.29;99073.34;5054360;28;19960;-49
2022/09/18 09:16:43;;;;;;;;;;;;;;;30.64;22.96;99071.63;5054240;28;19962;-49
2022/09/18 09:19:08;;;;;;;;;;;;;;;30.65;22.42;99079.44;5052884;28;20352;-49
2022/09/18 09:21:37;;;;;;;;;;;;;;;30.38;22.90;99075.19;5054109;28;19921;-49
2022/09/18 09:24:19;;;;;;;;;;;;;;;30.12;22.61;99086.03;5054033;28;20441;-50
2022/09/18 09:26:47;;;;;;;;;;;;;;;29.77;23.03;99083.38;5054081;28;19920;-50
2022/09/18 09:29:18;;;;;;;;;;;;;;;29.78;23.55;99084.16;5066299;28;20016;-50
2022/09/18 09:31:47;;;;;;;;;;;;;;;29.98;23.62;99083.53;5074204;28;19939;-50
2022/09/18 09:34:16;;;;;;;;;;;;;;;30.24;23.28;99083.50;5055873;28;19924;-48
2022/09/18 09:36:43;;;;;;;;;;;;;;;30.76;22.86;99076.38;5073772;28;19927;-48
2022/09/18 09:39:14;;;;;;;;;;;;;;;31.31;21.52;99071.97;5073759;28;20306;-48
2022/09/18 09:41:50;;;;;;;;;;;;;;;31.61;21.01;99073.53;5073660;28;19916;-48
2022/09/18 09:44:22;;;;;;;;;;;;;;;32.00;21.20;99076.91;5055753;28;19974;-48
2022/09/18 09:47:06;;;;;;;;;;;;;;;32.12;21.49;99083.53;5073589;28;19916;-49
2022/09/18 09:49:52;;;;;;;;;;;;;;;32.60;20.83;99076.66;5073595;28;19943;-49
2022/09/18 09:52:27;;;;;;;;;;;;;;;33.09;20.65;99071.25;5073175;28;19927;-51
2022/09/18 09:54:59;;;;;;;;;;;;;;;33.26;19.76;99070.19;5055576;28;20053;-48
2022/09/18 09:57:43;;;;;;;;;;;;;;;33.40;19.10;99070.66;5073409;28;19917;-49
2022/09/18 10:00:13;;;;;;;;;;;;;;;33.65;19.01;99064.38;5073293;28;19925;-50
2022/09/18 10:02:47;;;;;;;;;;;;;;;33.70;18.59;99062.19;5055470;28;20568;-49
2022/09/18 10:05:22;;;;;;;;;;;;;;;33.34;19.04;99065.75;5073151;28;19927;-50
2022/09/18 10:08:01;;;;;;;;;;;;;;;33.04;19.18;99060.56;5073267;28;19967;-48
2022/09/18 10:10:36;;;;;;;;;;;;;;;33.16;18.89;99057.06;5055193;28;19931;-50
2022/09/18 10:13:17;;;;;;;;;;;;;;;33.55;18.43;99052.78;5073156;28;20007;-47
2022/09/18 10:15:51;;;;;;;;;;;;;;;34.31;18.38;99043.97;5072862;28;19923;-50
2022/09/18 10:18:26;;;;;;;;;;;;;;;34.50;17.78;99049.53;5054990;28;19916;-49
2022/09/18 10:20:54;;;;;;;;;;;;;;;34.33;17.82;99047.97;5072978;28;19923;-47
2022/09/18 10:23:23;;;;;;;;;;;;;;;34.54;17.91;99038.72;5073181;28;20013;-48
2022/09/18 10:26:00;;;;;;;;;;;;;;;34.53;17.96;99037.13;5072977;28;20053;-48
2022/09/18 10:28:28;;;;;;;;;;;;;;;34.21;17.48;99016.13;5072567;28;19932;-49
2022/09/18 10:31:04;;;;;;;;;;;;;;;34.30;17.78;99021.41;5072686;28;19923;-48
2022/09/18 10:33:31;;;;;;;;;;;;;;;34.44;17.96;99017.47;5073016;28;19970;-48
2022/09/18 10:36:01;;;;;;;;;;;;;;;34.26;17.98;99020.53;5072616;28;19969;-48
2022/09/18 10:38:29;;;;;;;;;;;;;;;33.69;18.21;99016.28;5054724;28;19923;-48
2022/09/18 10:40:54;;;;;;;;;;;;;;;33.94;18.36;99015.00;5072840;28;19916;-48
2022/09/18 10:43:20;;;;;;;;;;;;;;;34.31;17.90;99011.28;5054582;28;20275;-48
2022/09/18 10:45:50;;;;;;;;;;;;;;;34.23;17.77;99007.63;5054642;28;20058;-49
2022/09/18 10:48:19;;;;;;;;;;;;;;;33.70;17.91;99012.41;5072583;28;19920;-50
2022/09/18 10:50:55;;;;;;;;;;;;;;;33.39;18.14;99011.91;5054421;28;19920;-50
2022/09/18 10:53:26;;;;;;;;;;;;;;;33.61;18.07;99010.63;5037905;28;20024;-49
2022/09/18 10:55:51;;;;;;;;;;;;;;;33.89;17.93;99014.47;5072460;28;20335;-48
2022/09/18 10:58:24;;;;;;;;;;;;;;;33.70;18.09;99015.13;5072376;28;20007;-48
2022/09/18 11:00:57;;;;;;;;;;;;;;;33.70;18.14;99015.13;5072277;28;19970;-48
2022/09/18 11:03:36;;;;;;;;;;;;;;;33.70;17.64;99006.94;5072413;28;20297;-49
2022/09/18 11:06:22;;;;;;;;;;;;;;;33.77;17.65;99007.16;5072203;28;20454;-50
2022/09/18 11:08:50;;;;;;;;;;;;;;;33.88;17.75;99002.78;5071935;28;19917;-49
2022/09/18 11:11:24;;;;;;;;;;;;;;;33.84;18.19;99001.88;5072233;28;19920;-50
2022/09/18 11:13:55;;;;;;;;;;;;;;;33.86;17.75;98999.59;5072218;28;20374;-49
2022/09/18 11:16:24;;;;;;;;;;;;;;;33.95;16.90;98997.53;5072232;28;19917;-46
2022/09/18 11:19:04;;;;;;;;;;;;;;;33.75;16.67;98982.22;5072155;28;20314;-49
2022/09/18 11:21:31;;;;;;;;;;;;;;;33.57;16.44;98998.03;5072365;28;20386;-48
2022/09/18 11:24:04;;;;;;;;;;;;;;;33.54;16.82;98998.69;5072087;28;19924;-50
2022/09/18 11:26:30;;;;;;;;;;;;;;;33.54;16.32;98991.31;5071998;28;19916;-48
2022/09/18 11:29:03;;;;;;;;;;;;;;;33.23;16.44;98984.63;5057425;28;19970;-49
2022/09/18 11:31:38;;;;;;;;;;;;;;;33.28;16.79;98988.25;5076416;28;19920;-49
2022/09/18 11:34:09;;;;;;;;;;;;;;;33.52;16.47;98985.44;5076173;28;19921;-49
2022/09/18 11:36:39;;;;;;;;;;;;;;;33.69;16.27;98986.31;5058077;28;19916;-49
2022/09/18 11:39:11;;;;;;;;;;;;;;;33.73;16.07;98989.94;5076250;28;19916;-50
2022/09/18 11:41:39;;;;;;;;;;;;;;;33.41;17.01;98982.41;5076047;28;19924;-50
2022/09/18 11:44:16;;;;;;;;;;;;;;;33.09;17.18;98989.66;5075970;28;20394;-49
2022/09/18 11:46:51;;;;;;;;;;;;;;;32.96;17.48;98997.03;5075865;28;20019;-50
2022/09/18 11:49:25;;;;;;;;;;;;;;;33.16;17.18;98978.19;5057937;28;19927;-50
2022/09/18 11:52:00;;;;;;;;;;;;;;;33.19;17.08;98975.56;5075814;28;19916;-47
2022/09/18 11:54:32;;;;;;;;;;;;;;;33.22;17.07;98974.91;5075814;28;19920;-48
2022/09/18 11:56:59;;;;;;;;;;;;;;;33.24;16.56;98974.53;5057725;28;19928;-48
2022/09/18 11:59:39;;;;;;;;;;;;;;;33.09;15.89;98967.13;5075754;28;19917;-48
2022/09/18 12:02:13;;;;;;;;;;;;;;;32.62;16.41;98974.63;5075763;28;19916;-48
2022/09/18 12:04:43;;;;;;;;;;;;;;;32.60;16.56;98966.03;5075588;28;19921;-47
2022/09/18 12:07:15;;;;;;;;;;;;;;;32.38;16.52;98963.72;5075800;28;19924;-49
2022/09/18 12:09:51;;;;;;;;;;;;;;;32.07;16.88;98959.59;5075582;28;20027;-49
2022/09/18 12:12:16;;;;;;;;;;;;;;;31.96;16.56;98961.16;5075457;28;19927;-50
2022/09/18 12:14:48;;;;;;;;;;;;;;;31.79;16.72;98971.06;5075327;28;20011;-50
2022/09/18 12:17:17;;;;;;;;;;;;;;;31.40;17.59;98966.91;5075360;28;20405;-50
2022/09/18 12:19:48;;;;;;;;;;;;;;;31.56;17.18;98957.06;5057335;28;19923;-50
2022/09/18 12:22:26;;;;;;;;;;;;;;;31.81;17.19;98963.38;5075331;28;19924;-48
2022/09/18 12:24:51;;;;;;;;;;;;;;;31.88;16.95;98956.59;5057264;28;19921;-48
2022/09/18 12:27:20;;;;;;;;;;;;;;;31.94;16.83;98953.34;5040615;28;19917;-48
2022/09/18 12:30:02;;;;;;;;;;;;;;;31.77;16.46;98945.38;5074940;28;19924;-49
2022/09/18 12:32:46;;;;;;;;;;;;;;;31.55;16.42;98960.91;5075043;28;19917;-49
2022/09/18 12:35:15;;;;;;;;;;;;;;;31.51;16.22;98959.19;5075069;28;19917;-49
2022/09/18 12:37:47;;;;;;;;;;;;;;;31.42;17.13;98962.75;5074936;28;19970;-50
2022/09/18 12:40:15;;;;;;;;;;;;;;;31.28;17.18;98954.09;5074542;28;19939;-49
2022/09/18 12:42:59;;;;;;;;;;;;;;;31.22;17.18;98956.19;5056936;28;20341;-49
2022/09/18 12:45:24;;;;;;;;;;;;;;;31.18;17.23;98960.69;5074774;28;20011;-49
2022/09/18 12:48:07;;;;;;;;;;;;;;;31.02;17.25;98951.56;5056804;28;19993;-50
2022/09/18 12:50:45;;;;;;;;;;;;;;;30.40;17.57;98948.38;5056781;28;19916;-48
2022/09/18 12:53:25;;;;;;;;;;;;;;;30.29;18.25;98944.44;5075007;28;20328;-48
2022/09/18 12:55:50;;;;;;;;;;;;;;;30.63;18.33;98946.22;5056588;28;19920;-48
2022/09/18 12:58:25;;;;;;;;;;;;;;;30.91;17.40;98945.75;5074670;28;19927;-49